Terminal Aerodrome Forecast
Issued by NWS Dallas/Fort Worth, TX

Home | Current Version | Previous Version | Text Only | Print | Product List | Glossary On
Versions: 1 2 3 4 5 6 7 8 9 10 11 12 13 14 15 16 17 18 19 20 21 22 23 24 25 26 27
000
FTUS44 KFWD 270500
TAFACT
TAF
KACT 270534Z 2706/2806 17008KT 4SM BR OVC004
     FM271000 32013KT 6SM -DZ BR OVC008
     FM271200 33015G25KT P6SM OVC012
     FM271700 33017KT P6SM VCSH OVC019
      TEMPO 2721/2801 4SM SHRA=

USA.gov is the U.S. government's official web portal to all federal, state and local government web resources and services.